Current Weather

Boise Air Trml/Gowen Fld

Boise, Idaho (KBOI)

Report from: Saturday, February 24, 2024 10:53 AM MST
Current time: Saturday, February 24, 2024 11:24 AM MST

Nearby weather – Weather history – Daily summaries
Weather forecast

Temperature10.0°C (50.0°F)
Wind chill8.0°C (46.3°F)
Dew point-1.7°C (28.9°F)
Winds 8 kts (4.1 m/s, 9.2 mph) East-Southeast (110°)
Visibility10 mi. (16.1 km)
Clouds Sky clear
Altimeter30.14 in.Hg (1021 mB)
Relative humidity44 %
Density altitude-768 ft. (-234 m)
Sea-level pressure102.1 kPa (1021 mB, 30.14 in.Hg)
Max temp last 6 hours10.0°C (50.0°F)
Min temp last 6 hours0.0°C (32.0°F)
Remarks Automated weather observing station with precipitation discriminator
Pressure falling more slowly
Flight conditions Visual Meteorological Conditions
Raw dataKBOI 241753Z 11008KT 10SM CLR 10/M02 A3014 RMK AO2 SLP208 T01001017 10100 20000 56004
An error has occurred. This application may no longer respond until reloaded. Reload 🗙